sensor_id;sensor_type;location;lat;lon;timestamp;temperature;humidity
27376;DHT22;14844;51.302;6.354;2023-04-09T00:01:26;8.50;99.90
27376;DHT22;14844;51.302;6.354;2023-04-09T00:03:52;8.40;99.90
27376;DHT22;14844;51.302;6.354;2023-04-09T00:06:17;8.20;99.90
27376;DHT22;14844;51.302;6.354;2023-04-09T00:08:43;8.10;99.90
27376;DHT22;14844;51.302;6.354;2023-04-09T00:11:08;8.00;99.90
27376;DHT22;14844;51.302;6.354;2023-04-09T00:13:34;8.00;99.90
27376;DHT22;14844;51.302;6.354;2023-04-09T00:15:59;7.90;99.90
27376;DHT22;14844;51.302;6.354;2023-04-09T00:18:25;8.00;99.90
27376;DHT22;14844;51.302;6.354;2023-04-09T00:20:50;7.90;99.90
27376;DHT22;14844;51.302;6.354;2023-04-09T00:23:16;7.90;99.90
27376;DHT22;14844;51.302;6.354;2023-04-09T00:25:41;7.90;99.90
27376;DHT22;14844;51.302;6.354;2023-04-09T00:28:06;7.90;99.90
27376;DHT22;14844;51.302;6.354;2023-04-09T00:30:32;7.80;99.90
27376;DHT22;14844;51.302;6.354;2023-04-09T00:32:57;7.70;99.90
27376;DHT22;14844;51.302;6.354;2023-04-09T00:35:23;7.60;99.90
27376;DHT22;14844;51.302;6.354;2023-04-09T00:37:48;7.50;99.90
27376;DHT22;14844;51.302;6.354;2023-04-09T00:40:14;7.50;99.90
27376;DHT22;14844;51.302;6.354;2023-04-09T00:42:39;7.40;99.90
27376;DHT22;14844;51.302;6.354;2023-04-09T00:45:06;7.50;99.90
27376;DHT22;14844;51.302;6.354;2023-04-09T00:47:31;7.60;99.90
27376;DHT22;14844;51.302;6.354;2023-04-09T00:49:58;7.60;99.90
27376;DHT22;14844;51.302;6.354;2023-04-09T00:52:24;7.60;99.90
27376;DHT22;14844;51.302;6.354;2023-04-09T00:54:51;7.60;99.90
27376;DHT22;14844;51.302;6.354;2023-04-09T00:57:16;7.60;99.90
27376;DHT22;14844;51.302;6.354;2023-04-09T00:59:42;7.60;99.90
27376;DHT22;14844;51.302;6.354;2023-04-09T01:02:08;7.60;99.90
27376;DHT22;14844;51.302;6.354;2023-04-09T01:04:34;7.60;99.90
27376;DHT22;14844;51.302;6.354;2023-04-09T01:14:51;7.40;99.90
27376;DHT22;14844;51.302;6.354;2023-04-09T01:17:23;7.40;99.90
27376;DHT22;14844;51.302;6.354;2023-04-09T01:19:54;7.30;99.90
27376;DHT22;14844;51.302;6.354;2023-04-09T01:27:46;7.00;99.90
27376;DHT22;14844;51.302;6.354;2023-04-09T01:30:16;7.00;99.90
27376;DHT22;14844;51.302;6.354;2023-04-09T01:32:42;6.90;99.90
27376;DHT22;14844;51.302;6.354;2023-04-09T01:35:08;6.70;99.90
27376;DHT22;14844;51.302;6.354;2023-04-09T01:37:34;6.60;99.90
27376;DHT22;14844;51.302;6.354;2023-04-09T01:40:00;6.50;99.90
27376;DHT22;14844;51.302;6.354;2023-04-09T01:42:25;6.40;99.90
27376;DHT22;14844;51.302;6.354;2023-04-09T01:44:51;6.20;99.90
27376;DHT22;14844;51.302;6.354;2023-04-09T01:47:17;6.20;99.90
27376;DHT22;14844;51.302;6.354;2023-04-09T01:49:43;6.00;99.90
27376;DHT22;14844;51.302;6.354;2023-04-09T01:52:09;6.00;99.90
27376;DHT22;14844;51.302;6.354;2023-04-09T01:54:35;6.00;99.90
27376;DHT22;14844;51.302;6.354;2023-04-09T01:57:01;6.00;99.90
27376;DHT22;14844;51.302;6.354;2023-04-09T01:59:26;6.00;99.90
27376;DHT22;14844;51.302;6.354;2023-04-09T02:01:52;6.00;99.90
27376;DHT22;14844;51.302;6.354;2023-04-09T02:04:21;6.00;99.90
27376;DHT22;14844;51.302;6.354;2023-04-09T02:06:58;6.00;99.90
27376;DHT22;14844;51.302;6.354;2023-04-09T02:09:27;6.00;99.90
27376;DHT22;14844;51.302;6.354;2023-04-09T02:11:53;6.00;99.90
27376;DHT22;14844;51.302;6.354;2023-04-09T02:14:21;5.90;99.90
27376;DHT22;14844;51.302;6.354;2023-04-09T02:16:47;5.90;99.90
27376;DHT22;14844;51.302;6.354;2023-04-09T02:19:13;5.80;99.90
27376;DHT22;14844;51.302;6.354;2023-04-09T02:21:38;5.70;99.90
27376;DHT22;14844;51.302;6.354;2023-04-09T02:24:03;5.70;99.90
27376;DHT22;14844;51.302;6.354;2023-04-09T02:26:29;5.60;99.90
27376;DHT22;14844;51.302;6.354;2023-04-09T02:28:54;5.60;99.90
27376;DHT22;14844;51.302;6.354;2023-04-09T02:31:20;5.50;99.90
27376;DHT22;14844;51.302;6.354;2023-04-09T02:33:45;5.40;99.90
27376;DHT22;14844;51.302;6.354;2023-04-09T02:36:11;5.40;99.90
27376;DHT22;14844;51.302;6.354;2023-04-09T02:38:39;5.30;99.90
27376;DHT22;14844;51.302;6.354;2023-04-09T02:41:04;5.30;99.90
27376;DHT22;14844;51.302;6.354;2023-04-09T02:43:30;5.20;99.90
27376;DHT22;14844;51.302;6.354;2023-04-09T02:45:55;5.10;99.90
27376;DHT22;14844;51.302;6.354;2023-04-09T02:48:21;5.00;99.90
27376;DHT22;14844;51.302;6.354;2023-04-09T02:50:46;5.00;99.90
27376;DHT22;14844;51.302;6.354;2023-04-09T02:53:12;5.00;99.90
27376;DHT22;14844;51.302;6.354;2023-04-09T02:55:37;4.90;99.90
27376;DHT22;14844;51.302;6.354;2023-04-09T02:58:02;4.80;99.90
27376;DHT22;14844;51.302;6.354;2023-04-09T03:00:28;4.90;99.90
27376;DHT22;14844;51.302;6.354;2023-04-09T03:02:53;5.10;99.90
27376;DHT22;14844;51.302;6.354;2023-04-09T03:05:20;5.10;99.90
27376;DHT22;14844;51.302;6.354;2023-04-09T03:07:45;5.10;99.90
27376;DHT22;14844;51.302;6.354;2023-04-09T03:10:14;5.20;99.90
27376;DHT22;14844;51.302;6.354;2023-04-09T03:12:39;5.00;99.90
27376;DHT22;14844;51.302;6.354;2023-04-09T03:15:05;4.90;99.90
27376;DHT22;14844;51.302;6.354;2023-04-09T03:17:31;4.90;99.90
27376;DHT22;14844;51.302;6.354;2023-04-09T03:19:56;4.90;99.90
27376;DHT22;14844;51.302;6.354;2023-04-09T03:22:22;4.90;99.90
27376;DHT22;14844;51.302;6.354;2023-04-09T03:24:47;4.80;99.90
27376;DHT22;14844;51.302;6.354;2023-04-09T03:27:13;4.80;99.90
27376;DHT22;14844;51.302;6.354;2023-04-09T03:29:38;4.80;99.90
27376;DHT22;14844;51.302;6.354;2023-04-09T03:32:04;4.80;99.90
27376;DHT22;14844;51.302;6.354;2023-04-09T03:34:29;4.80;99.90
27376;DHT22;14844;51.302;6.354;2023-04-09T03:36:55;4.70;99.90
27376;DHT22;14844;51.302;6.354;2023-04-09T03:39:20;4.60;99.90
27376;DHT22;14844;51.302;6.354;2023-04-09T03:41:46;4.50;99.90
27376;DHT22;14844;51.302;6.354;2023-04-09T03:44:11;4.40;99.90
27376;DHT22;14844;51.302;6.354;2023-04-09T03:46:36;4.40;99.90
27376;DHT22;14844;51.302;6.354;2023-04-09T03:49:02;4.40;99.90
27376;DHT22;14844;51.302;6.354;2023-04-09T03:51:27;4.30;99.90
27376;DHT22;14844;51.302;6.354;2023-04-09T03:53:53;4.30;99.90
27376;DHT22;14844;51.302;6.354;2023-04-09T03:56:18;4.20;99.90
27376;DHT22;14844;51.302;6.354;2023-04-09T03:58:44;4.20;99.90
27376;DHT22;14844;51.302;6.354;2023-04-09T04:01:09;4.20;99.90
27376;DHT22;14844;51.302;6.354;2023-04-09T04:03:35;4.10;99.90
27376;DHT22;14844;51.302;6.354;2023-04-09T04:06:01;4.10;99.90
27376;DHT22;14844;51.302;6.354;2023-04-09T04:08:27;3.90;99.90
27376;DHT22;14844;51.302;6.354;2023-04-09T04:10:52;3.80;99.90
27376;DHT22;14844;51.302;6.354;2023-04-09T04:13:18;3.80;99.90
27376;DHT22;14844;51.302;6.354;2023-04-09T04:15:43;3.70;99.90
27376;DHT22;14844;51.302;6.354;2023-04-09T04:18:09;3.60;99.90
27376;DHT22;14844;51.302;6.354;2023-04-09T04:20:35;3.60;99.90
27376;DHT22;14844;51.302;6.354;2023-04-09T04:23:01;3.50;99.90
27376;DHT22;14844;51.302;6.354;2023-04-09T04:25:27;3.40;99.90
27376;DHT22;14844;51.302;6.354;2023-04-09T04:27:52;3.50;99.90
27376;DHT22;14844;51.302;6.354;2023-04-09T04:30:19;3.40;99.90
27376;DHT22;14844;51.302;6.354;2023-04-09T04:32:45;3.40;99.90
27376;DHT22;14844;51.302;6.354;2023-04-09T04:35:10;3.20;99.90
27376;DHT22;14844;51.302;6.354;2023-04-09T04:37:35;3.20;99.90
27376;DHT22;14844;51.302;6.354;2023-04-09T04:40:01;3.10;99.90
27376;DHT22;14844;51.302;6.354;2023-04-09T04:42:27;3.10;99.90
27376;DHT22;14844;51.302;6.354;2023-04-09T04:44:52;3.00;99.90
27376;DHT22;14844;51.302;6.354;2023-04-09T04:47:18;3.00;99.90
27376;DHT22;14844;51.302;6.354;2023-04-09T04:49:43;3.00;99.90
27376;DHT22;14844;51.302;6.354;2023-04-09T04:52:09;3.20;99.90
27376;DHT22;14844;51.302;6.354;2023-04-09T04:54:34;3.30;99.90
27376;DHT22;14844;51.302;6.354;2023-04-09T04:57:00;3.40;99.90
27376;DHT22;14844;51.302;6.354;2023-04-09T04:59:26;3.50;99.90
27376;DHT22;14844;51.302;6.354;2023-04-09T05:01:51;3.50;99.90
27376;DHT22;14844;51.302;6.354;2023-04-09T05:04:17;3.50;99.90
27376;DHT22;14844;51.302;6.354;2023-04-09T05:06:42;3.50;99.90
27376;DHT22;14844;51.302;6.354;2023-04-09T05:09:07;3.50;99.90
27376;DHT22;14844;51.302;6.354;2023-04-09T05:11:33;3.40;99.90
27376;DHT22;14844;51.302;6.354;2023-04-09T05:13:58;3.30;99.90
27376;DHT22;14844;51.302;6.354;2023-04-09T05:16:24;3.40;99.90
27376;DHT22;14844;51.302;6.354;2023-04-09T05:18:49;3.40;99.90
27376;DHT22;14844;51.302;6.354;2023-04-09T05:21:15;3.40;99.90
27376;DHT22;14844;51.302;6.354;2023-04-09T05:23:40;3.40;99.90
27376;DHT22;14844;51.302;6.354;2023-04-09T05:26:07;3.40;99.90
27376;DHT22;14844;51.302;6.354;2023-04-09T05:28:32;3.40;99.90
27376;DHT22;14844;51.302;6.354;2023-04-09T05:30:58;3.50;99.90
27376;DHT22;14844;51.302;6.354;2023-04-09T05:33:23;3.60;99.90
27376;DHT22;14844;51.302;6.354;2023-04-09T05:35:49;3.60;99.90
27376;DHT22;14844;51.302;6.354;2023-04-09T05:38:14;3.70;99.90
27376;DHT22;14844;51.302;6.354;2023-04-09T05:40:40;3.70;99.90
27376;DHT22;14844;51.302;6.354;2023-04-09T05:43:06;3.80;99.90
27376;DHT22;14844;51.302;6.354;2023-04-09T05:45:32;3.90;99.90
27376;DHT22;14844;51.302;6.354;2023-04-09T05:47:57;3.90;99.90
27376;DHT22;14844;51.302;6.354;2023-04-09T05:50:22;3.90;99.90
27376;DHT22;14844;51.302;6.354;2023-04-09T05:52:48;4.00;99.90
27376;DHT22;14844;51.302;6.354;2023-04-09T05:55:13;4.20;99.90
27376;DHT22;14844;51.302;6.354;2023-04-09T05:57:39;4.20;99.90
27376;DHT22;14844;51.302;6.354;2023-04-09T06:00:06;4.30;99.90
27376;DHT22;14844;51.302;6.354;2023-04-09T06:02:32;4.50;99.90
27376;DHT22;14844;51.302;6.354;2023-04-09T06:05:00;4.60;99.90
27376;DHT22;14844;51.302;6.354;2023-04-09T06:07:26;4.80;99.90
27376;DHT22;14844;51.302;6.354;2023-04-09T06:09:51;4.90;99.90
27376;DHT22;14844;51.302;6.354;2023-04-09T06:12:17;5.10;99.90
27376;DHT22;14844;51.302;6.354;2023-04-09T06:14:42;5.20;99.90
27376;DHT22;14844;51.302;6.354;2023-04-09T06:17:08;5.40;99.90
27376;DHT22;14844;51.302;6.354;2023-04-09T06:19:33;5.60;99.90
27376;DHT22;14844;51.302;6.354;2023-04-09T06:21:59;5.70;99.90
27376;DHT22;14844;51.302;6.354;2023-04-09T06:24:24;5.90;99.90
27376;DHT22;14844;51.302;6.354;2023-04-09T06:26:50;6.10;99.90
27376;DHT22;14844;51.302;6.354;2023-04-09T06:29:16;6.30;99.90
27376;DHT22;14844;51.302;6.354;2023-04-09T06:31:41;6.40;99.90
27376;DHT22;14844;51.302;6.354;2023-04-09T06:34:07;6.50;99.90
27376;DHT22;14844;51.302;6.354;2023-04-09T06:36:32;6.60;99.90
27376;DHT22;14844;51.302;6.354;2023-04-09T06:38:58;6.80;99.90
27376;DHT22;14844;51.302;6.354;2023-04-09T06:41:24;7.00;99.90
27376;DHT22;14844;51.302;6.354;2023-04-09T06:43:51;7.10;99.90
27376;DHT22;14844;51.302;6.354;2023-04-09T06:46:16;7.20;99.90
27376;DHT22;14844;51.302;6.354;2023-04-09T06:48:44;7.40;99.90
27376;DHT22;14844;51.302;6.354;2023-04-09T06:51:10;7.40;99.90
27376;DHT22;14844;51.302;6.354;2023-04-09T06:53:36;7.50;99.90
27376;DHT22;14844;51.302;6.354;2023-04-09T06:56:06;7.70;99.90
27376;DHT22;14844;51.302;6.354;2023-04-09T06:58:32;7.80;99.90
27376;DHT22;14844;51.302;6.354;2023-04-09T07:00:58;8.00;99.90
27376;DHT22;14844;51.302;6.354;2023-04-09T07:03:23;8.20;99.90
27376;DHT22;14844;51.302;6.354;2023-04-09T07:05:49;8.30;99.90
27376;DHT22;14844;51.302;6.354;2023-04-09T07:08:14;8.50;99.90
27376;DHT22;14844;51.302;6.354;2023-04-09T07:10:40;8.70;99.90
27376;DHT22;14844;51.302;6.354;2023-04-09T07:13:05;8.90;99.90
27376;DHT22;14844;51.302;6.354;2023-04-09T07:15:31;9.00;99.90
27376;DHT22;14844;51.302;6.354;2023-04-09T07:17:57;9.10;99.90
27376;DHT22;14844;51.302;6.354;2023-04-09T07:20:22;9.20;99.90
27376;DHT22;14844;51.302;6.354;2023-04-09T07:22:48;9.50;99.90
27376;DHT22;14844;51.302;6.354;2023-04-09T07:25:13;9.60;99.90
27376;DHT22;14844;51.302;6.354;2023-04-09T07:27:39;9.80;99.90
27376;DHT22;14844;51.302;6.354;2023-04-09T07:30:05;9.90;99.90
27376;DHT22;14844;51.302;6.354;2023-04-09T07:32:30;10.10;99.90
27376;DHT22;14844;51.302;6.354;2023-04-09T07:34:56;10.20;99.90
27376;DHT22;14844;51.302;6.354;2023-04-09T07:37:23;10.40;99.90
27376;DHT22;14844;51.302;6.354;2023-04-09T07:39:49;10.50;99.90
27376;DHT22;14844;51.302;6.354;2023-04-09T07:42:15;10.70;99.90
27376;DHT22;14844;51.302;6.354;2023-04-09T07:44:41;10.90;99.90
27376;DHT22;14844;51.302;6.354;2023-04-09T07:47:06;10.90;99.90
27376;DHT22;14844;51.302;6.354;2023-04-09T07:49:34;11.00;99.90
27376;DHT22;14844;51.302;6.354;2023-04-09T07:52:00;11.30;99.90
27376;DHT22;14844;51.302;6.354;2023-04-09T07:54:25;11.40;99.90
27376;DHT22;14844;51.302;6.354;2023-04-09T07:56:53;11.60;99.90
27376;DHT22;14844;51.302;6.354;2023-04-09T07:59:20;11.60;99.90
27376;DHT22;14844;51.302;6.354;2023-04-09T08:01:45;11.80;99.90
27376;DHT22;14844;51.302;6.354;2023-04-09T08:04:11;11.80;99.90
27376;DHT22;14844;51.302;6.354;2023-04-09T08:06:37;12.00;99.90
27376;DHT22;14844;51.302;6.354;2023-04-09T08:09:03;12.20;99.90
27376;DHT22;14844;51.302;6.354;2023-04-09T08:11:28;12.20;99.90
27376;DHT22;14844;51.302;6.354;2023-04-09T08:13:54;12.40;99.90
27376;DHT22;14844;51.302;6.354;2023-04-09T08:16:20;12.60;99.90
27376;DHT22;14844;51.302;6.354;2023-04-09T08:18:47;12.60;99.90
27376;DHT22;14844;51.302;6.354;2023-04-09T08:21:13;12.70;99.90
27376;DHT22;14844;51.302;6.354;2023-04-09T08:23:39;12.90;99.90
27376;DHT22;14844;51.302;6.354;2023-04-09T08:26:05;13.00;99.90
27376;DHT22;14844;51.302;6.354;2023-04-09T08:28:30;13.10;99.90
27376;DHT22;14844;51.302;6.354;2023-04-09T08:30:56;13.10;99.90
27376;DHT22;14844;51.302;6.354;2023-04-09T08:33:22;13.10;99.90
27376;DHT22;14844;51.302;6.354;2023-04-09T08:35:48;13.20;99.90
27376;DHT22;14844;51.302;6.354;2023-04-09T08:38:13;13.30;99.90
27376;DHT22;14844;51.302;6.354;2023-04-09T08:40:40;13.40;99.90
27376;DHT22;14844;51.302;6.354;2023-04-09T08:43:06;13.60;99.90
27376;DHT22;14844;51.302;6.354;2023-04-09T08:45:32;13.70;99.90
27376;DHT22;14844;51.302;6.354;2023-04-09T08:47:57;13.80;99.90
27376;DHT22;14844;51.302;6.354;2023-04-09T08:50:24;13.90;99.90
27376;DHT22;14844;51.302;6.354;2023-04-09T08:52:50;13.90;99.90
27376;DHT22;14844;51.302;6.354;2023-04-09T08:55:15;13.90;99.90
27376;DHT22;14844;51.302;6.354;2023-04-09T08:57:41;13.90;99.90
27376;DHT22;14844;51.302;6.354;2023-04-09T09:00:07;13.80;99.90
27376;DHT22;14844;51.302;6.354;2023-04-09T09:02:33;13.60;99.90
27376;DHT22;14844;51.302;6.354;2023-04-09T09:04:59;13.60;99.90
27376;DHT22;14844;51.302;6.354;2023-04-09T09:07:28;13.60;99.90
27376;DHT22;14844;51.302;6.354;2023-04-09T09:12:33;13.90;99.90
27376;DHT22;14844;51.302;6.354;2023-04-09T09:14:58;14.10;99.90
27376;DHT22;14844;51.302;6.354;2023-04-09T09:17:24;14.40;99.90
27376;DHT22;14844;51.302;6.354;2023-04-09T09:19:50;14.60;99.90
27376;DHT22;14844;51.302;6.354;2023-04-09T09:22:16;14.70;99.90
27376;DHT22;14844;51.302;6.354;2023-04-09T09:24:45;14.80;99.90
27376;DHT22;14844;51.302;6.354;2023-04-09T09:27:13;14.70;99.90
27376;DHT22;14844;51.302;6.354;2023-04-09T09:29:54;14.80;99.90
27376;DHT22;14844;51.302;6.354;2023-04-09T09:32:20;14.90;99.90
27376;DHT22;14844;51.302;6.354;2023-04-09T09:34:56;15.10;99.90
27376;DHT22;14844;51.302;6.354;2023-04-09T09:37:25;15.00;99.90
27376;DHT22;14844;51.302;6.354;2023-04-09T09:39:52;15.00;99.90
27376;DHT22;14844;51.302;6.354;2023-04-09T09:42:18;15.10;99.90
27376;DHT22;14844;51.302;6.354;2023-04-09T09:44:43;15.20;99.90
27376;DHT22;14844;51.302;6.354;2023-04-09T09:47:09;15.30;99.90
27376;DHT22;14844;51.302;6.354;2023-04-09T09:49:37;15.50;99.90
27376;DHT22;14844;51.302;6.354;2023-04-09T09:52:04;15.80;99.90
27376;DHT22;14844;51.302;6.354;2023-04-09T09:54:32;16.10;99.90
27376;DHT22;14844;51.302;6.354;2023-04-09T09:57:03;16.20;99.90
27376;DHT22;14844;51.302;6.354;2023-04-09T09:59:33;16.50;99.90
27376;DHT22;14844;51.302;6.354;2023-04-09T10:02:04;16.80;99.90
27376;DHT22;14844;51.302;6.354;2023-04-09T10:04:34;17.00;99.90
27376;DHT22;14844;51.302;6.354;2023-04-09T10:07:00;17.10;99.90
27376;DHT22;14844;51.302;6.354;2023-04-09T10:09:29;16.90;99.90
27376;DHT22;14844;51.302;6.354;2023-04-09T10:11:54;16.90;99.90
27376;DHT22;14844;51.302;6.354;2023-04-09T10:14:21;17.00;99.90
27376;DHT22;14844;51.302;6.354;2023-04-09T10:16:47;17.10;99.90
27376;DHT22;14844;51.302;6.354;2023-04-09T10:19:12;17.20;99.90
27376;DHT22;14844;51.302;6.354;2023-04-09T10:24:04;17.60;99.90
27376;DHT22;14844;51.302;6.354;2023-04-09T10:26:35;17.80;99.90
27376;DHT22;14844;51.302;6.354;2023-04-09T10:29:08;17.70;99.50
27376;DHT22;14844;51.302;6.354;2023-04-09T10:31:53;17.80;98.80
27376;DHT22;14844;51.302;6.354;2023-04-09T10:34:20;18.60;98.20
27376;DHT22;14844;51.302;6.354;2023-04-09T10:36:50;19.20;96.60
27376;DHT22;14844;51.302;6.354;2023-04-09T10:39:17;19.00;96.00
27376;DHT22;14844;51.302;6.354;2023-04-09T10:41:43;19.00;96.20
27376;DHT22;14844;51.302;6.354;2023-04-09T10:44:22;19.00;96.50
27376;DHT22;14844;51.302;6.354;2023-04-09T10:46:47;18.80;97.10
27376;DHT22;14844;51.302;6.354;2023-04-09T10:49:14;18.90;95.20
27376;DHT22;14844;51.302;6.354;2023-04-09T10:51:40;19.30;96.00
27376;DHT22;14844;51.302;6.354;2023-04-09T10:59:53;18.70;95.00
27376;DHT22;14844;51.302;6.354;2023-04-09T11:07:23;17.50;95.30
27376;DHT22;14844;51.302;6.354;2023-04-09T11:09:49;17.30;96.00
27376;DHT22;14844;51.302;6.354;2023-04-09T11:12:14;17.00;96.20
27376;DHT22;14844;51.302;6.354;2023-04-09T11:14:40;17.00;96.90
27376;DHT22;14844;51.302;6.354;2023-04-09T11:17:05;17.30;96.50
27376;DHT22;14844;51.302;6.354;2023-04-09T11:19:34;17.40;95.30
27376;DHT22;14844;51.302;6.354;2023-04-09T11:21:59;17.70;95.60
27376;DHT22;14844;51.302;6.354;2023-04-09T11:24:38;17.90;96.10
27376;DHT22;14844;51.302;6.354;2023-04-09T11:27:04;18.30;94.50
27376;DHT22;14844;51.302;6.354;2023-04-09T11:29:29;18.70;93.60
27376;DHT22;14844;51.302;6.354;2023-04-09T11:31:55;18.90;94.10
27376;DHT22;14844;51.302;6.354;2023-04-09T11:34:21;18.60;93.20
27376;DHT22;14844;51.302;6.354;2023-04-09T11:36:58;18.00;94.00
27376;DHT22;14844;51.302;6.354;2023-04-09T11:39:24;17.70;94.60
27376;DHT22;14844;51.302;6.354;2023-04-09T11:41:59;17.30;95.10
27376;DHT22;14844;51.302;6.354;2023-04-09T11:44:25;17.60;95.20
27376;DHT22;14844;51.302;6.354;2023-04-09T11:46:50;17.70;93.80
27376;DHT22;14844;51.302;6.354;2023-04-09T11:49:16;18.10;93.80
27376;DHT22;14844;51.302;6.354;2023-04-09T11:51:41;18.50;93.30
27376;DHT22;14844;51.302;6.354;2023-04-09T11:54:09;18.80;93.00
27376;DHT22;14844;51.302;6.354;2023-04-09T11:56:35;18.40;92.10
27376;DHT22;14844;51.302;6.354;2023-04-09T11:59:02;18.30;94.40
27376;DHT22;14844;51.302;6.354;2023-04-09T12:01:31;18.50;93.80
27376;DHT22;14844;51.302;6.354;2023-04-09T12:03:57;18.40;92.60
27376;DHT22;14844;51.302;6.354;2023-04-09T12:06:22;18.30;92.50
27376;DHT22;14844;51.302;6.354;2023-04-09T12:08:52;17.80;92.70
27376;DHT22;14844;51.302;6.354;2023-04-09T12:11:18;17.80;93.10
27376;DHT22;14844;51.302;6.354;2023-04-09T12:13:44;17.90;93.10
27376;DHT22;14844;51.302;6.354;2023-04-09T12:16:13;17.60;92.80
27376;DHT22;14844;51.302;6.354;2023-04-09T12:18:38;17.50;92.80
27376;DHT22;14844;51.302;6.354;2023-04-09T12:21:04;17.20;93.50
27376;DHT22;14844;51.302;6.354;2023-04-09T12:23:30;16.90;94.10
27376;DHT22;14844;51.302;6.354;2023-04-09T12:25:56;17.00;93.40
27376;DHT22;14844;51.302;6.354;2023-04-09T12:28:24;17.10;93.30
27376;DHT22;14844;51.302;6.354;2023-04-09T12:30:50;17.10;93.50
27376;DHT22;14844;51.302;6.354;2023-04-09T12:33:15;17.30;94.10
27376;DHT22;14844;51.302;6.354;2023-04-09T12:35:41;17.60;93.60
27376;DHT22;14844;51.302;6.354;2023-04-09T12:38:06;17.70;93.20
27376;DHT22;14844;51.302;6.354;2023-04-09T12:40:32;17.90;93.40
27376;DHT22;14844;51.302;6.354;2023-04-09T12:42:58;17.80;92.80
27376;DHT22;14844;51.302;6.354;2023-04-09T12:45:23;18.40;92.60
27376;DHT22;14844;51.302;6.354;2023-04-09T12:47:49;18.40;92.70
27376;DHT22;14844;51.302;6.354;2023-04-09T12:50:15;18.20;92.10
27376;DHT22;14844;51.302;6.354;2023-04-09T12:52:41;17.90;92.60
27376;DHT22;14844;51.302;6.354;2023-04-09T12:55:07;17.80;92.80
27376;DHT22;14844;51.302;6.354;2023-04-09T12:57:32;18.00;93.00
27376;DHT22;14844;51.302;6.354;2023-04-09T12:59:58;18.20;92.80
27376;DHT22;14844;51.302;6.354;2023-04-09T13:02:24;18.40;92.70
27376;DHT22;14844;51.302;6.354;2023-04-09T13:04:50;17.90;92.30
27376;DHT22;14844;51.302;6.354;2023-04-09T13:07:15;17.40;92.70
27376;DHT22;14844;51.302;6.354;2023-04-09T13:09:43;17.00;93.80
27376;DHT22;14844;51.302;6.354;2023-04-09T13:12:08;17.00;93.40
27376;DHT22;14844;51.302;6.354;2023-04-09T13:14:37;17.50;93.20
27376;DHT22;14844;51.302;6.354;2023-04-09T13:17:03;18.00;93.20
27376;DHT22;14844;51.302;6.354;2023-04-09T13:19:28;18.30;93.70
27376;DHT22;14844;51.302;6.354;2023-04-09T13:21:53;18.60;92.40
27376;DHT22;14844;51.302;6.354;2023-04-09T13:24:19;18.60;90.70
27376;DHT22;14844;51.302;6.354;2023-04-09T13:26:44;18.30;91.80
27376;DHT22;14844;51.302;6.354;2023-04-09T13:29:10;17.80;92.40
27376;DHT22;14844;51.302;6.354;2023-04-09T13:31:36;17.80;92.30
27376;DHT22;14844;51.302;6.354;2023-04-09T13:34:01;18.30;92.90
27376;DHT22;14844;51.302;6.354;2023-04-09T13:36:27;18.70;92.20
27376;DHT22;14844;51.302;6.354;2023-04-09T13:38:53;19.00;91.80
27376;DHT22;14844;51.302;6.354;2023-04-09T13:41:18;19.20;91.50
27376;DHT22;14844;51.302;6.354;2023-04-09T13:43:44;19.40;91.00
27376;DHT22;14844;51.302;6.354;2023-04-09T13:46:10;19.50;91.10
27376;DHT22;14844;51.302;6.354;2023-04-09T13:48:35;19.40;90.90
27376;DHT22;14844;51.302;6.354;2023-04-09T13:51:01;19.40;91.40
27376;DHT22;14844;51.302;6.354;2023-04-09T13:53:26;19.60;91.30
27376;DHT22;14844;51.302;6.354;2023-04-09T13:55:52;19.70;91.30
27376;DHT22;14844;51.302;6.354;2023-04-09T13:58:17;19.60;90.20
27376;DHT22;14844;51.302;6.354;2023-04-09T14:00:44;19.80;90.30
27376;DHT22;14844;51.302;6.354;2023-04-09T14:03:09;19.40;90.00
27376;DHT22;14844;51.302;6.354;2023-04-09T14:05:35;19.40;90.30
27376;DHT22;14844;51.302;6.354;2023-04-09T14:08:01;19.20;90.70
27376;DHT22;14844;51.302;6.354;2023-04-09T14:10:26;18.80;91.10
27376;DHT22;14844;51.302;6.354;2023-04-09T14:12:52;18.40;91.00
27376;DHT22;14844;51.302;6.354;2023-04-09T14:15:17;18.30;91.30
27376;DHT22;14844;51.302;6.354;2023-04-09T14:17:43;18.10;90.90
27376;DHT22;14844;51.302;6.354;2023-04-09T14:20:08;18.10;91.10
27376;DHT22;14844;51.302;6.354;2023-04-09T14:22:34;18.10;91.30
27376;DHT22;14844;51.302;6.354;2023-04-09T14:24:59;18.00;91.20
27376;DHT22;14844;51.302;6.354;2023-04-09T14:27:25;17.70;91.20
27376;DHT22;14844;51.302;6.354;2023-04-09T14:29:51;17.90;91.30
27376;DHT22;14844;51.302;6.354;2023-04-09T14:32:17;18.00;91.40
27376;DHT22;14844;51.302;6.354;2023-04-09T14:34:43;18.40;90.80
27376;DHT22;14844;51.302;6.354;2023-04-09T14:37:08;18.50;91.10
27376;DHT22;14844;51.302;6.354;2023-04-09T14:39:34;18.70;91.10
27376;DHT22;14844;51.302;6.354;2023-04-09T14:41:59;18.90;90.30
27376;DHT22;14844;51.302;6.354;2023-04-09T14:44:26;18.90;90.00
27376;DHT22;14844;51.302;6.354;2023-04-09T14:46:51;18.80;90.50
27376;DHT22;14844;51.302;6.354;2023-04-09T14:49:22;18.90;92.00
27376;DHT22;14844;51.302;6.354;2023-04-09T14:51:47;19.00;91.20
27376;DHT22;14844;51.302;6.354;2023-04-09T14:54:13;19.10;91.40
27376;DHT22;14844;51.302;6.354;2023-04-09T14:56:38;19.20;89.80
27376;DHT22;14844;51.302;6.354;2023-04-09T14:59:04;19.20;90.70
27376;DHT22;14844;51.302;6.354;2023-04-09T15:01:30;19.60;90.60
27376;DHT22;14844;51.302;6.354;2023-04-09T15:03:55;19.90;90.00
27376;DHT22;14844;51.302;6.354;2023-04-09T15:06:21;20.40;87.90
27376;DHT22;14844;51.302;6.354;2023-04-09T15:08:46;21.00;89.20
27376;DHT22;14844;51.302;6.354;2023-04-09T15:11:15;21.60;87.30
27376;DHT22;14844;51.302;6.354;2023-04-09T15:13:41;22.20;86.30
27376;DHT22;14844;51.302;6.354;2023-04-09T15:16:06;23.30;82.80
27376;DHT22;14844;51.302;6.354;2023-04-09T15:18:32;24.40;79.70
27376;DHT22;14844;51.302;6.354;2023-04-09T15:20:57;24.50;80.40
27376;DHT22;14844;51.302;6.354;2023-04-09T15:23:23;25.00;75.80
27376;DHT22;14844;51.302;6.354;2023-04-09T15:25:48;25.10;74.60
27376;DHT22;14844;51.302;6.354;2023-04-09T15:33:06;23.50;72.00
27376;DHT22;14844;51.302;6.354;2023-04-09T15:35:34;23.30;73.50
27376;DHT22;14844;51.302;6.354;2023-04-09T15:37:59;21.60;76.20
27376;DHT22;14844;51.302;6.354;2023-04-09T15:40:25;20.40;78.70
27376;DHT22;14844;51.302;6.354;2023-04-09T15:42:50;20.00;79.20
27376;DHT22;14844;51.302;6.354;2023-04-09T15:45:16;19.70;80.20
27376;DHT22;14844;51.302;6.354;2023-04-09T15:47:44;20.60;81.20
27376;DHT22;14844;51.302;6.354;2023-04-09T15:50:10;21.20;79.20
27376;DHT22;14844;51.302;6.354;2023-04-09T15:52:36;21.90;76.30
27376;DHT22;14844;51.302;6.354;2023-04-09T15:55:01;21.90;76.30
27376;DHT22;14844;51.302;6.354;2023-04-09T15:57:27;22.20;76.50
27376;DHT22;14844;51.302;6.354;2023-04-09T15:59:53;22.40;77.00
27376;DHT22;14844;51.302;6.354;2023-04-09T16:02:18;22.60;77.20
27376;DHT22;14844;51.302;6.354;2023-04-09T16:04:44;23.20;76.60